createdAt,value
2023-05-20T00:01:29.755Z,100.00
2023-05-20T00:03:57.691Z,100.00
2023-05-20T00:06:27.094Z,100.00
2023-05-20T00:08:55.729Z,100.00
2023-05-20T00:11:23.863Z,100.00
2023-05-20T00:13:51.705Z,100.00
2023-05-20T00:16:19.517Z,100.00
2023-05-20T00:18:47.305Z,100.00
2023-05-20T00:21:15.072Z,100.00
2023-05-20T00:23:44.289Z,100.00
2023-05-20T00:26:12.026Z,100.00
2023-05-20T00:28:39.707Z,100.00
2023-05-20T00:31:07.400Z,100.00
2023-05-20T00:33:36.403Z,100.00
2023-05-20T00:36:04.166Z,100.00
2023-05-20T00:38:31.935Z,100.00
2023-05-20T00:41:01.266Z,99.89
2023-05-20T00:43:29.057Z,100.00
2023-05-20T00:45:56.803Z,100.00
2023-05-20T00:48:24.562Z,100.00
2023-05-20T00:50:52.912Z,100.00
2023-05-20T00:53:21.264Z,100.00
2023-05-20T00:55:49.039Z,100.00
2023-05-20T00:58:18.168Z,100.00
2023-05-20T01:00:46.281Z,100.00
2023-05-20T01:03:14.331Z,100.00
2023-05-20T01:05:42.558Z,100.00
2023-05-20T01:08:10.479Z,100.00
2023-05-20T01:10:40.592Z,100.00
2023-05-20T01:13:10.904Z,100.00
2023-05-20T01:15:41.714Z,99.66
2023-05-20T01:18:10.714Z,100.00
2023-05-20T01:20:39.390Z,100.00
2023-05-20T01:23:08.687Z,100.00
2023-05-20T01:25:36.537Z,100.00
2023-05-20T01:28:04.612Z,100.00
2023-05-20T01:30:38.351Z,100.00
2023-05-20T01:33:08.343Z,100.00
2023-05-20T01:35:36.641Z,100.00
2023-05-20T01:38:06.337Z,100.00
2023-05-20T01:40:35.879Z,100.00
2023-05-20T01:43:04.358Z,100.00
2023-05-20T01:45:32.683Z,100.00
2023-05-20T01:48:01.778Z,100.00
2023-05-20T01:50:29.645Z,100.00
2023-05-20T01:52:57.476Z,100.00
2023-05-20T01:55:25.183Z,100.00
2023-05-20T01:57:54.240Z,100.00
2023-05-20T02:00:22.204Z,100.00
2023-05-20T02:02:50.027Z,100.00
2023-05-20T02:05:17.944Z,100.00
2023-05-20T02:07:45.815Z,100.00
2023-05-20T02:10:13.810Z,100.00
2023-05-20T02:12:41.630Z,100.00
2023-05-20T02:15:11.334Z,100.00
2023-05-20T02:17:39.755Z,100.00
2023-05-20T02:20:09.234Z,100.00
2023-05-20T02:22:36.982Z,100.00
2023-05-20T02:25:05.098Z,100.00
2023-05-20T02:27:32.805Z,100.00
2023-05-20T02:30:01.420Z,100.00
2023-05-20T02:32:30.530Z,100.00
2023-05-20T02:34:58.261Z,100.00
2023-05-20T02:37:26.387Z,100.00
2023-05-20T02:39:54.066Z,100.00
2023-05-20T02:42:21.822Z,100.00
2023-05-20T02:44:49.629Z,100.00
2023-05-20T02:47:17.352Z,100.00
2023-05-20T02:49:46.784Z,100.00
2023-05-20T02:52:16.141Z,100.00
2023-05-20T02:54:43.894Z,100.00
2023-05-20T02:57:12.020Z,100.00
2023-05-20T02:59:39.764Z,100.00
2023-05-20T03:02:07.482Z,100.00
2023-05-20T03:04:38.507Z,100.00
2023-05-20T03:07:09.050Z,100.00
2023-05-20T03:09:36.838Z,100.00
2023-05-20T03:12:04.816Z,100.00
2023-05-20T03:14:32.488Z,100.00
2023-05-20T03:17:00.241Z,100.00
2023-05-20T03:19:28.134Z,100.00
2023-05-20T03:21:55.999Z,100.00
2023-05-20T03:24:25.062Z,100.00
2023-05-20T03:26:52.816Z,100.00
2023-05-20T03:29:21.288Z,100.00
2023-05-20T03:31:49.082Z,100.00
2023-05-20T03:34:16.825Z,100.00
2023-05-20T03:36:44.578Z,100.00
2023-05-20T03:39:12.271Z,100.00
2023-05-20T03:41:41.357Z,100.00
2023-05-20T03:44:09.048Z,100.00
2023-05-20T03:46:37.181Z,100.00
2023-05-20T03:49:05.876Z,100.00
2023-05-20T03:51:33.566Z,100.00
2023-05-20T03:54:01.324Z,100.00
2023-05-20T03:56:29.113Z,100.00
2023-05-20T03:58:58.258Z,100.00
2023-05-20T04:01:27.759Z,100.00
2023-05-20T04:03:55.583Z,100.00
2023-05-20T04:06:23.524Z,100.00
2023-05-20T04:08:52.896Z,100.00
2023-05-20T04:11:21.439Z,100.00
2023-05-20T04:13:49.141Z,100.00
2023-05-20T04:16:18.347Z,100.00
2023-05-20T04:18:46.250Z,100.00
2023-05-20T04:21:14.109Z,100.00
2023-05-20T04:23:42.020Z,100.00
2023-05-20T04:26:09.739Z,100.00
2023-05-20T04:28:37.820Z,100.00
2023-05-20T04:31:05.933Z,100.00
2023-05-20T04:33:38.690Z,100.00
2023-05-20T04:36:08.671Z,100.00
2023-05-20T04:38:36.382Z,100.00
2023-05-20T04:41:04.113Z,100.00
2023-05-20T04:43:31.830Z,100.00
2023-05-20T04:46:01.421Z,100.00
2023-05-20T04:48:29.244Z,100.00
2023-05-20T04:50:58.377Z,100.00
2023-05-20T04:53:26.187Z,100.00
2023-05-20T04:55:57.003Z,100.00
2023-05-20T04:58:25.373Z,100.00
2023-05-20T05:00:54.018Z,100.00
2023-05-20T05:03:21.752Z,98.65
2023-05-20T05:05:49.560Z,88.71
2023-05-20T05:08:18.653Z,80.96
2023-05-20T05:10:46.618Z,75.83
2023-05-20T05:13:14.394Z,71.40
2023-05-20T05:15:42.239Z,69.10
2023-05-20T05:18:10.196Z,68.02
2023-05-20T05:20:38.088Z,66.92
2023-05-20T05:23:05.813Z,69.52
2023-05-20T05:25:35.024Z,69.23
2023-05-20T05:28:02.990Z,67.24
2023-05-20T05:30:30.723Z,61.46
2023-05-20T05:33:45.477Z,60.74
2023-05-20T05:36:13.165Z,62.65
2023-05-20T05:38:40.967Z,60.98
2023-05-20T05:41:08.695Z,64.55
2023-05-20T05:43:36.607Z,70.49
2023-05-20T05:46:05.153Z,66.52
2023-05-20T05:48:33.300Z,65.78
2023-05-20T05:51:02.790Z,65.49
2023-05-20T05:53:30.539Z,65.52
2023-05-20T05:55:58.274Z,64.89
2023-05-20T05:58:26.004Z,61.65
2023-05-20T06:00:54.807Z,66.67
2023-05-20T06:03:22.991Z,67.26
2023-05-20T06:05:51.011Z,60.86
2023-05-20T06:08:20.077Z,64.22
2023-05-20T06:10:50.192Z,68.41
2023-05-20T06:13:18.095Z,70.13
2023-05-20T06:15:46.481Z,66.56
2023-05-20T06:18:14.288Z,66.66
2023-05-20T06:20:42.055Z,68.51
2023-05-20T06:23:09.807Z,66.88
2023-05-20T06:25:38.873Z,67.74
2023-05-20T06:28:06.597Z,66.56
2023-05-20T06:30:34.298Z,67.60
2023-05-20T06:33:02.057Z,64.76
2023-05-20T06:35:29.766Z,66.78
2023-05-20T06:37:57.566Z,62.44
2023-05-20T06:40:27.207Z,63.29
2023-05-20T06:42:56.384Z,64.83
2023-05-20T06:45:24.091Z,66.88
2023-05-20T06:47:54.149Z,69.68
2023-05-20T06:50:22.111Z,68.74
2023-05-20T06:52:49.839Z,69.15
2023-05-20T06:55:17.721Z,68.37
2023-05-20T06:57:45.735Z,68.67
2023-05-20T07:00:15.644Z,66.77
2023-05-20T07:02:43.531Z,69.05
2023-05-20T07:05:11.838Z,67.60
2023-05-20T07:07:39.919Z,68.87
2023-05-20T07:10:09.155Z,68.84
2023-05-20T07:12:37.197Z,67.35
2023-05-20T07:15:05.242Z,68.65
2023-05-20T07:17:34.335Z,67.08
2023-05-20T07:20:02.156Z,67.91
2023-05-20T07:22:29.875Z,66.26
2023-05-20T07:24:57.669Z,67.83
2023-05-20T07:27:25.361Z,67.03
2023-05-20T07:29:53.530Z,68.19
2023-05-20T07:32:21.726Z,66.87
2023-05-20T07:34:50.805Z,65.43
2023-05-20T07:37:18.506Z,66.68
2023-05-20T07:39:46.274Z,66.12
2023-05-20T07:42:14.045Z,63.97
2023-05-20T07:44:41.906Z,65.23
2023-05-20T07:47:09.608Z,62.19
2023-05-20T07:49:37.290Z,62.62
2023-05-20T07:52:07.067Z,63.38
2023-05-20T07:54:36.594Z,64.59
2023-05-20T07:57:04.325Z,63.16
2023-05-20T07:59:32.008Z,60.70
2023-05-20T08:01:59.851Z,61.31
2023-05-20T08:04:28.158Z,63.25
2023-05-20T08:06:56.186Z,62.47
2023-05-20T08:09:25.344Z,63.50
2023-05-20T08:11:53.039Z,63.02
2023-05-20T08:14:20.920Z,61.50
2023-05-20T08:16:48.739Z,57.83
2023-05-20T08:19:16.596Z,57.97
2023-05-20T08:21:44.593Z,57.16
2023-05-20T08:24:12.308Z,55.83
2023-05-20T08:26:41.662Z,58.01
2023-05-20T08:29:09.587Z,56.45
2023-05-20T08:31:37.415Z,56.14
2023-05-20T08:34:05.150Z,55.22
2023-05-20T08:36:33.001Z,56.20
2023-05-20T08:39:00.682Z,57.79
2023-05-20T08:41:28.424Z,56.62
2023-05-20T08:43:58.644Z,53.77
2023-05-20T08:46:26.617Z,53.49
2023-05-20T08:48:54.340Z,53.32
2023-05-20T08:51:23.854Z,55.75
2023-05-20T08:53:52.231Z,53.61
2023-05-20T08:56:20.356Z,53.64
2023-05-20T08:58:48.083Z,51.67
2023-05-20T09:01:18.037Z,51.37
2023-05-20T09:03:45.768Z,52.82
2023-05-20T09:06:20.086Z,53.86
2023-05-20T09:08:49.639Z,53.18
2023-05-20T09:11:17.398Z,53.60
2023-05-20T09:13:45.370Z,53.67
2023-05-20T09:16:13.596Z,54.45
2023-05-20T09:18:43.532Z,52.25
2023-05-20T09:21:11.705Z,49.63
2023-05-20T09:23:39.576Z,49.18
2023-05-20T09:26:07.712Z,49.89
2023-05-20T09:28:38.257Z,49.51
2023-05-20T09:31:07.194Z,48.75
2023-05-20T09:33:35.778Z,48.31
2023-05-20T09:36:07.033Z,47.46
2023-05-20T09:38:37.928Z,47.53
2023-05-20T09:41:09.617Z,47.87
2023-05-20T09:43:37.460Z,49.98
2023-05-20T09:46:05.785Z,49.67
2023-05-20T09:48:34.455Z,48.87
2023-05-20T09:51:02.866Z,49.16
2023-05-20T09:53:32.337Z,48.68
2023-05-20T09:56:00.395Z,48.47
2023-05-20T09:58:28.367Z,49.06
2023-05-20T10:00:56.141Z,48.41
2023-05-20T10:03:25.255Z,48.11
2023-05-20T10:06:03.036Z,48.59
2023-05-20T10:08:42.704Z,47.21
2023-05-20T10:11:16.753Z,47.70
2023-05-20T10:13:54.750Z,47.53
2023-05-20T10:16:31.158Z,47.36
2023-05-20T10:19:05.059Z,45.95
2023-05-20T10:21:33.812Z,45.44
2023-05-20T10:24:09.174Z,44.86
2023-05-20T10:26:38.272Z,44.43
2023-05-20T10:29:16.580Z,44.35
2023-05-20T10:31:51.273Z,43.27
2023-05-20T10:34:20.496Z,45.45
2023-05-20T10:36:58.290Z,46.12
2023-05-20T10:39:29.656Z,45.59
2023-05-20T10:42:08.310Z,45.93
2023-05-20T10:44:43.509Z,47.24
2023-05-20T10:49:46.068Z,45.54
2023-05-20T10:52:14.394Z,45.33
2023-05-20T10:54:50.151Z,46.62
2023-05-20T10:57:20.032Z,45.40
2023-05-20T10:59:48.484Z,45.21
2023-05-20T11:02:17.518Z,45.47
2023-05-20T11:04:45.797Z,45.23
2023-05-20T11:07:13.617Z,45.58
2023-05-20T11:09:52.046Z,44.76
2023-05-20T11:12:19.881Z,45.75
2023-05-20T11:14:49.413Z,46.01
2023-05-20T11:17:17.407Z,44.65
2023-05-20T11:19:45.116Z,45.01
2023-05-20T11:22:13.007Z,44.90
2023-05-20T11:24:40.847Z,46.68
2023-05-20T11:27:10.318Z,45.59
2023-05-20T11:29:38.296Z,44.47
2023-05-20T11:32:06.829Z,45.20
2023-05-20T11:34:35.317Z,44.90
2023-05-20T11:37:03.085Z,45.46
2023-05-20T11:39:31.459Z,45.36
2023-05-20T11:41:59.558Z,45.29
2023-05-20T11:44:28.716Z,45.24
2023-05-20T11:47:01.603Z,45.71
2023-05-20T11:49:30.698Z,45.83
2023-05-20T11:51:58.505Z,44.45
2023-05-20T11:54:26.427Z,44.66
2023-05-20T11:56:55.680Z,46.45
2023-05-20T11:59:25.431Z,45.99
2023-05-20T12:01:54.667Z,45.55
2023-05-20T12:04:22.578Z,43.99
2023-05-20T12:06:50.354Z,43.31
2023-05-20T12:09:18.055Z,44.12
2023-05-20T12:11:45.787Z,44.02
2023-05-20T12:14:13.567Z,44.99
2023-05-20T12:16:41.359Z,45.38
2023-05-20T12:19:10.499Z,43.23
2023-05-20T12:21:38.281Z,44.49
2023-05-20T12:24:08.465Z,42.80
2023-05-20T12:26:36.505Z,41.92
2023-05-20T12:29:04.198Z,41.49
2023-05-20T12:31:34.694Z,40.23
2023-05-20T12:34:02.905Z,39.95
2023-05-20T12:36:32.374Z,40.47
2023-05-20T12:39:00.145Z,40.34
2023-05-20T12:41:27.880Z,41.52
2023-05-20T12:43:55.623Z,42.46
2023-05-20T12:46:23.553Z,41.79
2023-05-20T12:48:51.355Z,41.48
2023-05-20T12:51:20.231Z,42.86
2023-05-20T12:53:49.444Z,42.62
2023-05-20T12:56:17.696Z,43.24
2023-05-20T12:58:45.400Z,42.55
2023-05-20T13:01:13.158Z,41.81
2023-05-20T13:03:41.462Z,41.24
2023-05-20T13:06:09.234Z,41.75
2023-05-20T13:08:36.910Z,41.74
2023-05-20T13:11:05.996Z,41.67
2023-05-20T13:13:33.720Z,42.99
2023-05-20T13:16:01.449Z,41.43
2023-05-20T13:18:29.198Z,41.44
2023-05-20T13:20:57.073Z,41.87
2023-05-20T13:23:24.800Z,42.27
2023-05-20T13:25:52.852Z,42.17
2023-05-20T13:28:22.438Z,42.76
2023-05-20T13:30:50.175Z,42.72
2023-05-20T13:33:18.106Z,43.06
2023-05-20T13:35:45.823Z,41.82
2023-05-20T13:38:13.568Z,42.65
2023-05-20T13:40:41.299Z,41.84
2023-05-20T13:43:09.059Z,42.11
2023-05-20T13:45:38.120Z,42.10
2023-05-20T13:48:06.689Z,41.70
2023-05-20T13:50:34.641Z,41.16
2023-05-20T13:53:02.921Z,40.65
2023-05-20T13:55:31.593Z,39.79
2023-05-20T13:57:59.341Z,40.83
2023-05-20T14:00:27.079Z,41.20
2023-05-20T14:02:56.295Z,39.78
2023-05-20T14:05:24.173Z,41.30
2023-05-20T14:07:51.947Z,42.04
2023-05-20T14:10:19.738Z,41.62
2023-05-20T14:12:48.248Z,41.43
2023-05-20T14:15:16.384Z,41.15
2023-05-20T14:17:44.175Z,40.78
2023-05-20T14:20:13.738Z,41.52
2023-05-20T14:22:41.456Z,40.03
2023-05-20T14:25:09.694Z,41.02
2023-05-20T14:27:37.845Z,41.49
2023-05-20T14:30:06.810Z,41.00
2023-05-20T14:32:34.724Z,40.21
2023-05-20T14:35:02.486Z,41.21
2023-05-20T14:37:31.638Z,43.37
2023-05-20T14:39:59.382Z,42.74
2023-05-20T14:42:27.266Z,43.66
2023-05-20T14:44:54.953Z,44.22
2023-05-20T14:47:22.827Z,45.19
2023-05-20T14:49:51.185Z,44.64
2023-05-20T14:52:19.132Z,44.75
2023-05-20T14:54:48.268Z,45.14
2023-05-20T14:57:16.813Z,43.11
2023-05-20T14:59:44.695Z,43.47
2023-05-20T15:02:15.450Z,42.60
2023-05-20T15:04:46.301Z,44.05
2023-05-20T15:07:14.188Z,42.70
2023-05-20T15:09:41.947Z,42.41
2023-05-20T15:12:11.923Z,43.68
2023-05-20T15:14:39.658Z,44.71
2023-05-20T15:17:07.686Z,43.53
2023-05-20T15:19:36.951Z,43.62
2023-05-20T15:22:05.764Z,44.07
2023-05-20T15:24:33.541Z,46.66
2023-05-20T15:27:01.237Z,47.77
2023-05-20T15:29:30.373Z,47.90
2023-05-20T15:31:58.115Z,47.56
2023-05-20T15:34:25.805Z,47.80
2023-05-20T15:36:53.785Z,46.88
2023-05-20T15:39:21.488Z,47.40
2023-05-20T15:41:49.999Z,48.56
2023-05-20T15:44:17.761Z,48.08
2023-05-20T15:46:47.287Z,45.57
2023-05-20T15:49:15.118Z,45.46
2023-05-20T15:51:52.376Z,45.02
2023-05-20T15:54:30.094Z,44.63
2023-05-20T15:56:57.940Z,43.66
2023-05-20T15:59:25.870Z,45.66
2023-05-20T16:01:55.025Z,46.48
2023-05-20T16:04:23.098Z,48.22
2023-05-20T16:06:50.963Z,47.92
2023-05-20T16:09:18.831Z,47.03
2023-05-20T16:11:47.818Z,46.02
2023-05-20T16:14:15.604Z,46.53
2023-05-20T16:16:43.429Z,47.67
2023-05-20T16:19:12.626Z,48.45
2023-05-20T16:21:40.390Z,48.93
2023-05-20T16:24:08.113Z,48.13
2023-05-20T16:26:35.810Z,48.38
2023-05-20T16:29:03.510Z,48.91
2023-05-20T16:31:31.261Z,48.89
2023-05-20T16:33:58.977Z,48.39
2023-05-20T16:36:28.155Z,46.23
2023-05-20T16:38:56.011Z,47.39
2023-05-20T16:41:23.841Z,48.23
2023-05-20T16:43:51.585Z,48.42
2023-05-20T16:46:19.335Z,48.75
2023-05-20T16:48:47.169Z,48.51
2023-05-20T16:51:14.901Z,48.64
2023-05-20T16:53:43.981Z,48.22
2023-05-20T16:56:11.679Z,47.38
2023-05-20T16:58:39.435Z,47.38
2023-05-20T17:01:08.243Z,47.83
2023-05-20T17:03:36.369Z,48.95
2023-05-20T17:06:04.132Z,49.47
2023-05-20T17:08:31.965Z,49.30
2023-05-20T17:11:01.499Z,49.11
2023-05-20T17:13:29.195Z,49.03
2023-05-20T17:15:56.952Z,49.39
2023-05-20T17:18:24.716Z,50.20
2023-05-20T17:20:52.403Z,50.83
2023-05-20T17:23:20.152Z,50.59
2023-05-20T17:25:47.937Z,50.29
2023-05-20T17:28:17.021Z,49.89
2023-05-20T17:30:44.719Z,50.33
2023-05-20T17:33:12.516Z,50.12
2023-05-20T17:35:40.755Z,49.16
2023-05-20T17:38:08.530Z,50.42
2023-05-20T17:40:36.550Z,51.96
2023-05-20T17:43:04.502Z,51.37
2023-05-20T17:45:33.621Z,51.94
2023-05-20T17:48:02.485Z,51.95
2023-05-20T17:50:30.362Z,51.85
2023-05-20T17:52:58.058Z,52.24
2023-05-20T17:55:25.778Z,53.17
2023-05-20T17:57:53.538Z,53.67
2023-05-20T18:00:21.672Z,53.83
2023-05-20T18:02:51.731Z,54.07
2023-05-20T18:05:19.529Z,55.27
2023-05-20T18:07:47.380Z,55.05
2023-05-20T18:10:15.260Z,55.52
2023-05-20T18:12:45.282Z,55.09
2023-05-20T18:15:14.238Z,55.43
2023-05-20T18:17:41.979Z,55.32
2023-05-20T18:20:12.682Z,56.49
2023-05-20T18:22:45.021Z,57.16
2023-05-20T18:25:13.023Z,56.71
2023-05-20T18:27:41.070Z,57.27
2023-05-20T18:30:09.834Z,58.65
2023-05-20T18:32:38.869Z,59.75
2023-05-20T18:35:07.658Z,59.71
2023-05-20T18:37:36.704Z,60.60
2023-05-20T18:40:06.475Z,60.61
2023-05-20T18:42:34.240Z,61.47
2023-05-20T18:45:01.968Z,60.97
2023-05-20T18:47:29.821Z,60.14
2023-05-20T18:49:57.574Z,61.50
2023-05-20T18:52:25.445Z,61.77
2023-05-20T18:54:54.522Z,62.58
2023-05-20T18:57:22.536Z,62.76
2023-05-20T18:59:50.514Z,63.02
2023-05-20T19:02:18.501Z,64.01
2023-05-20T19:04:46.231Z,65.07
2023-05-20T19:07:13.950Z,65.33
2023-05-20T19:09:41.665Z,66.09
2023-05-20T19:12:10.967Z,66.78
2023-05-20T19:14:38.689Z,65.90
2023-05-20T19:17:07.125Z,66.14
2023-05-20T19:19:34.916Z,66.38
2023-05-20T19:22:02.640Z,66.26
2023-05-20T19:24:32.000Z,66.71
2023-05-20T19:27:00.131Z,67.55
2023-05-20T19:29:29.305Z,67.86
2023-05-20T19:31:57.538Z,68.12
2023-05-20T19:34:25.499Z,69.31
2023-05-20T19:36:53.184Z,69.89
2023-05-20T19:39:21.971Z,69.79
2023-05-20T19:41:49.789Z,70.19
2023-05-20T19:44:18.914Z,69.62
2023-05-20T19:46:48.227Z,69.81
2023-05-20T19:49:15.967Z,70.39
2023-05-20T19:51:44.044Z,70.31
2023-05-20T19:54:11.817Z,71.28
2023-05-20T19:56:39.659Z,71.99
2023-05-20T19:59:07.403Z,73.26
2023-05-20T20:01:35.164Z,73.66
2023-05-20T20:04:04.377Z,73.84
2023-05-20T20:06:32.426Z,74.54
2023-05-20T20:09:00.163Z,73.46
2023-05-20T20:11:27.886Z,74.47
2023-05-20T20:13:55.597Z,75.18
2023-05-20T20:16:23.403Z,75.19
2023-05-20T20:18:51.230Z,74.41
2023-05-20T20:21:20.391Z,73.97
2023-05-20T20:23:48.126Z,73.29
2023-05-20T20:26:16.236Z,73.81
2023-05-20T20:28:43.956Z,74.19
2023-05-20T20:31:11.744Z,74.80
2023-05-20T20:33:39.471Z,76.87
2023-05-20T20:36:08.856Z,76.03
2023-05-20T20:38:38.677Z,76.98
2023-05-20T20:41:09.455Z,77.72
2023-05-20T20:43:38.074Z,78.58
2023-05-20T20:46:06.345Z,78.85
2023-05-20T20:48:34.540Z,79.25
2023-05-20T20:51:02.262Z,80.38
2023-05-20T20:53:30.025Z,79.49
2023-05-20T20:55:59.195Z,79.07
2023-05-20T20:58:27.054Z,79.94
2023-05-20T21:00:54.982Z,78.70
2023-05-20T21:03:23.926Z,78.74
2023-05-20T21:05:51.862Z,78.18
2023-05-20T21:08:22.072Z,77.60
2023-05-20T21:10:49.794Z,79.59
2023-05-20T21:13:19.105Z,80.05
2023-05-20T21:15:47.349Z,80.00
2023-05-20T21:18:21.614Z,79.92
2023-05-20T21:20:49.470Z,80.60
2023-05-20T21:23:17.176Z,80.39
2023-05-20T21:25:45.072Z,81.02
2023-05-20T21:28:12.967Z,82.05
2023-05-20T21:30:42.135Z,82.35
2023-05-20T21:33:09.902Z,81.89
2023-05-20T21:35:37.946Z,81.73
2023-05-20T21:38:05.808Z,81.36
2023-05-20T21:40:33.781Z,82.54
2023-05-20T21:43:01.572Z,83.46
2023-05-20T21:45:29.270Z,82.58
2023-05-20T21:47:58.366Z,82.78
2023-05-20T21:50:26.112Z,81.00
2023-05-20T21:52:53.872Z,81.86
2023-05-20T21:55:23.631Z,82.21
2023-05-20T21:57:51.781Z,83.17
2023-05-20T22:00:20.602Z,83.50
2023-05-20T22:02:48.572Z,84.12
2023-05-20T22:05:18.271Z,85.81
2023-05-20T22:07:46.363Z,86.96
2023-05-20T22:10:14.576Z,86.86
2023-05-20T22:12:43.200Z,87.45
2023-05-20T22:15:12.037Z,89.47
2023-05-20T22:17:39.801Z,88.67
2023-05-20T22:20:10.476Z,88.42
2023-05-20T22:22:39.865Z,89.19
2023-05-20T22:25:08.443Z,88.00
2023-05-20T22:27:36.226Z,87.43
2023-05-20T22:30:06.127Z,88.09
2023-05-20T22:32:33.994Z,87.87
2023-05-20T22:35:01.738Z,89.68
2023-05-20T22:37:30.014Z,88.50
2023-05-20T22:39:59.109Z,89.82
2023-05-20T22:42:26.848Z,89.09
2023-05-20T22:44:54.596Z,89.47
2023-05-20T22:47:22.404Z,90.34
2023-05-20T22:49:50.798Z,91.10
2023-05-20T22:52:18.836Z,90.72
2023-05-20T22:54:46.683Z,91.23
2023-05-20T22:57:17.043Z,90.79
2023-05-20T22:59:44.708Z,90.58
2023-05-20T23:02:12.505Z,91.06
2023-05-20T23:04:41.386Z,91.38
2023-05-20T23:07:09.165Z,92.50
2023-05-20T23:09:36.879Z,93.19
2023-05-20T23:12:05.115Z,93.73
2023-05-20T23:14:34.239Z,95.47
2023-05-20T23:17:02.061Z,94.93
2023-05-20T23:19:29.935Z,97.46
2023-05-20T23:21:57.919Z,97.10
2023-05-20T23:24:25.655Z,96.92
2023-05-20T23:26:53.929Z,98.05
2023-05-20T23:29:22.215Z,97.17
2023-05-20T23:31:51.293Z,96.59
2023-05-20T23:34:19.102Z,95.51
2023-05-20T23:36:46.831Z,95.77
2023-05-20T23:39:16.246Z,96.00
2023-05-20T23:41:45.888Z,96.93
2023-05-20T23:44:13.587Z,95.71
2023-05-20T23:46:41.784Z,96.67
2023-05-20T23:49:12.282Z,97.63
2023-05-20T23:51:40.003Z,98.86
2023-05-20T23:54:08.066Z,99.44
2023-05-20T23:56:36.188Z,97.73
2023-05-20T23:59:03.912Z,100.00
